Time;durP1;ratioP1;P1;durP2;ratioP2;P2;SDS_P1;SDS_P2;PMS_P1;PMS_P2;Temp;Humidity;BMP_temperature;BMP_pressure;BME280_temperature;BME280_humidity;BME280_pressure;Samples;Min_cycle;Max_cycle;Signal;HPM_P1;HPM_P2
2020/12/17 00:02:18;;;;;;;6.20;5.60;;;7.30;7.90;;;;;;5083613;28;20461;-78
2020/12/17 00:04:45;;;;;;;7.47;6.77;;;7.30;7.80;;;;;;5066792;28;20470;-77
2020/12/17 00:07:12;;;;;;;7.70;6.17;;;7.30;14.70;;;;;;5086043;28;20486;-78
2020/12/17 00:09:39;;;;;;;6.97;6.37;;;7.30;11.90;;;;;;5086936;28;20437;-77
2020/12/17 00:12:07;;;;;;;7.03;5.97;;;7.30;15.40;;;;;;5059827;28;20472;-77
2020/12/17 00:14:34;;;;;;;6.50;5.87;;;7.40;8.40;;;;;;5085629;28;20518;-77
2020/12/17 00:17:01;;;;;;;7.30;6.60;;;7.40;1.00;;;;;;5081073;28;20571;-80
2020/12/17 00:19:29;;;;;;;7.63;6.83;;;7.50;1.00;;;;;;5091322;28;20490;-77
2020/12/17 00:21:56;;;;;;;10.10;7.07;;;7.40;1.00;;;;;;5086878;28;20535;-78
2020/12/17 00:24:23;;;;;;;6.87;6.17;;;7.50;1.00;;;;;;5066233;28;20517;-78
2020/12/17 00:26:50;;;;;;;6.67;6.10;;;7.50;1.00;;;;;;5094359;28;20468;-76
2020/12/17 00:29:18;;;;;;;6.40;5.90;;;7.50;1.00;;;;;;5073117;28;20963;-77
2020/12/17 00:31:45;;;;;;;6.40;5.73;;;7.50;1.00;;;;;;5097212;28;20477;-80
2020/12/17 00:34:12;;;;;;;5.47;5.07;;;7.40;1.00;;;;;;5090183;28;20472;-77
2020/12/17 00:36:51;;;;;;;6.23;5.63;;;7.40;1.00;;;;;;5064011;28;20518;-79
2020/12/17 00:39:20;;;;;;;5.63;5.13;;;7.40;1.00;;;;;;5071347;28;20489;-78
2020/12/17 00:41:47;;;;;;;7.60;5.00;;;7.40;1.00;;;;;;5088372;28;20481;-78
2020/12/17 00:44:14;;;;;;;10.13;6.33;;;7.50;1.00;;;;;;5066877;28;20463;-77
2020/12/17 00:46:42;;;;;;;6.03;5.23;;;7.40;1.00;;;;;;5095066;28;20524;-79
2020/12/17 00:49:09;;;;;;;6.13;5.50;;;7.30;1.00;;;;;;5097988;28;21039;-78
2020/12/17 00:51:36;;;;;;;5.13;4.63;;;7.30;1.00;;;;;;5094730;28;20857;-79
2020/12/17 00:54:03;;;;;;;5.03;4.57;;;7.30;1.00;;;;;;5093743;28;20956;-76
2020/12/17 00:56:30;;;;;;;6.27;5.23;;;7.20;1.00;;;;;;5083798;28;20524;-78
2020/12/17 00:58:57;;;;;;;6.40;5.43;;;7.20;1.00;;;;;;5091255;28;20483;-77
2020/12/17 01:01:24;;;;;;;5.67;4.90;;;7.20;1.00;;;;;;5090105;28;20540;-83
2020/12/17 01:03:52;;;;;;;5.47;4.97;;;7.20;1.00;;;;;;5092829;28;20470;-80
2020/12/17 01:06:20;;;;;;;5.37;4.87;;;7.10;1.00;;;;;;5099873;28;20531;-78
2020/12/17 01:08:47;;;;;;;5.00;4.50;;;7.10;1.00;;;;;;5102301;28;20484;-78
2020/12/17 01:11:14;;;;;;;5.90;5.47;;;7.30;1.00;;;;;;5074926;28;20460;-76
2020/12/17 01:13:41;;;;;;;7.70;5.70;;;7.40;1.00;;;;;;5095959;28;20474;-80
2020/12/17 01:16:09;;;;;;;5.93;5.43;;;7.40;1.00;;;;;;5071150;28;20980;-77
2020/12/17 01:18:37;;;;;;;7.93;4.90;;;7.50;1.00;;;;;;5092182;28;20482;-77
2020/12/17 01:21:06;;;;;;;5.17;4.77;;;7.50;1.00;;;;;;5087175;28;20482;-77
2020/12/17 01:23:33;;;;;;;7.37;6.10;;;7.50;1.00;;;;;;5093408;28;20463;-78
2020/12/17 01:26:00;;;;;;;7.20;5.60;;;7.50;1.00;;;;;;5092436;28;21045;-78
2020/12/17 01:28:27;;;;;;;5.63;4.90;;;7.50;1.00;;;;;;5074174;28;20907;-77
2020/12/17 01:30:54;;;;;;;5.60;5.20;;;7.40;1.00;;;;;;5078746;28;20925;-78
2020/12/17 01:33:22;;;;;;;5.80;5.30;;;7.40;1.00;;;;;;5097496;28;20463;-78
2020/12/17 01:35:49;;;;;;;5.70;5.13;;;7.20;1.00;;;;;;5090555;28;20462;-80
2020/12/17 01:38:17;;;;;;;5.60;5.00;;;7.20;1.00;;;;;;5085902;28;20558;-77
2020/12/17 01:40:46;;;;;;;5.90;5.30;;;7.20;1.00;;;;;;5076861;28;21056;-77
2020/12/17 01:43:13;;;;;;;6.47;5.80;;;7.20;1.00;;;;;;5093158;28;20953;-75
2020/12/17 01:45:40;;;;;;;5.87;5.37;;;7.20;1.00;;;;;;5086928;28;20475;-78
2020/12/17 01:48:09;;;;;;;6.60;5.00;;;7.20;1.00;;;;;;5071451;28;20487;-77
2020/12/17 01:50:36;;;;;;;6.30;5.20;;;7.20;1.00;;;;;;5086802;28;20697;-75
2020/12/17 01:53:03;;;;;;;6.93;5.17;;;7.10;1.00;;;;;;5070470;28;20475;-78
2020/12/17 01:55:31;;;;;;;6.87;5.80;;;7.10;1.00;;;;;;5089206;28;20467;-78
2020/12/17 01:58:03;;;;;;;7.20;5.20;;;7.00;1.00;;;;;;5084964;28;20496;-77
2020/12/17 02:00:34;;;;;;;5.23;4.73;;;6.80;1.00;;;;;;5083835;28;21092;-76
2020/12/17 02:03:03;;;;;;;6.53;5.50;;;6.80;1.00;;;;;;5060301;28;20465;-76
2020/12/17 02:05:31;;;;;;;8.50;6.60;;;6.90;1.00;;;;;;5088428;28;20502;-78
2020/12/17 02:07:59;;;;;;;6.27;5.47;;;7.00;1.00;;;;;;5089293;28;20842;-76
2020/12/17 02:10:27;;;;;;;7.80;6.00;;;7.10;1.00;;;;;;5080263;28;20637;-80
2020/12/17 02:12:55;;;;;;;7.87;6.47;;;7.10;1.00;;;;;;5084239;28;20475;-77
2020/12/17 02:15:22;;;;;;;11.83;7.73;;;7.10;1.00;;;;;;5083554;28;20481;-77
2020/12/17 02:17:50;;;;;;;8.50;6.13;;;7.10;1.00;;;;;;5088297;28;21767;-78
2020/12/17 02:20:17;;;;;;;5.63;4.93;;;7.00;1.00;;;;;;5095958;28;20501;-78
2020/12/17 02:22:45;;;;;;;6.97;6.30;;;7.00;1.00;;;;;;5089639;28;20469;-78
2020/12/17 02:25:15;;;;;;;6.43;5.83;;;7.10;1.00;;;;;;5091810;28;20482;-78
2020/12/17 02:27:43;;;;;;;7.20;5.97;;;7.10;1.00;;;;;;5086479;28;20597;-79
2020/12/17 02:30:11;;;;;;;6.43;5.67;;;7.10;1.00;;;;;;5091114;28;21003;-77
2020/12/17 02:32:38;;;;;;;7.77;5.80;;;7.10;1.00;;;;;;5088837;28;20476;-77
2020/12/17 02:35:07;;;;;;;7.43;5.80;;;7.20;1.00;;;;;;5059946;28;20972;-78
2020/12/17 02:37:36;;;;;;;7.93;5.90;;;7.20;1.00;;;;;;5070928;28;20905;-80
2020/12/17 02:40:05;;;;;;;7.00;6.07;;;7.20;1.00;;;;;;5077323;28;20556;-79
2020/12/17 02:42:33;;;;;;;6.73;6.07;;;7.20;1.00;;;;;;5083622;28;21043;-76
2020/12/17 02:45:00;;;;;;;6.50;5.90;;;7.20;1.00;;;;;;5086891;28;20473;-76
2020/12/17 02:47:27;;;;;;;7.40;6.47;;;7.20;1.00;;;;;;5085505;28;20544;-75
2020/12/17 02:49:54;;;;;;;6.63;5.83;;;7.10;1.00;;;;;;5081004;28;20516;-76
2020/12/17 02:52:21;;;;;;;7.03;6.33;;;7.10;1.00;;;;;;5087534;28;20472;-77
2020/12/17 02:54:48;;;;;;;7.37;6.10;;;7.10;1.00;;;;;;5090183;28;21140;-79
2020/12/17 02:57:16;;;;;;;7.10;6.40;;;7.10;1.00;;;;;;5083203;28;20498;-78
2020/12/17 02:59:44;;;;;;;10.00;7.47;;;7.00;1.00;;;;;;5067973;28;20499;-77
2020/12/17 03:02:11;;;;;;;7.03;6.43;;;7.00;1.00;;;;;;5082411;28;20491;-78
2020/12/17 03:04:38;;;;;;;8.47;6.90;;;7.00;1.00;;;;;;5079941;28;20461;-76
2020/12/17 03:07:05;;;;;;;7.27;6.57;;;7.00;1.00;;;;;;5085215;28;20957;-80
2020/12/17 03:09:32;;;;;;;8.13;7.00;;;6.90;1.00;;;;;;5071642;28;20463;-77
2020/12/17 03:12:00;;;;;;;8.40;7.70;;;6.90;1.00;;;;;;5088036;28;20474;-78
2020/12/17 03:14:27;;;;;;;10.10;7.03;;;6.90;1.00;;;;;;5083544;28;20520;-79
2020/12/17 03:16:55;;;;;;;7.63;6.77;;;6.90;1.00;;;;;;5078372;28;20488;-77
2020/12/17 03:19:22;;;;;;;11.00;8.80;;;6.90;1.00;;;;;;5083423;28;20466;-76
2020/12/17 03:21:51;;;;;;;9.93;8.43;;;6.80;1.00;;;;;;5089827;28;20491;-77
2020/12/17 03:24:19;;;;;;;9.07;7.83;;;6.80;1.00;;;;;;5087770;28;20552;-77
2020/12/17 03:26:46;;;;;;;10.53;7.93;;;6.80;1.00;;;;;;5088963;28;20478;-77
2020/12/17 03:29:14;;;;;;;13.57;8.03;;;6.90;1.00;;;;;;5087370;28;20481;-76
2020/12/17 03:31:41;;;;;;;8.87;7.93;;;6.80;1.00;;;;;;5070755;28;20461;-80
2020/12/17 03:34:09;;;;;;;9.87;8.23;;;6.80;1.00;;;;;;5097139;28;20456;-77
2020/12/17 03:36:36;;;;;;;11.60;8.50;;;6.80;1.00;;;;;;5090058;28;21128;-77
2020/12/17 03:39:03;;;;;;;10.40;8.50;;;6.80;1.00;;;;;;5099643;28;20493;-77
2020/12/17 03:41:30;;;;;;;10.80;8.40;;;6.80;1.00;;;;;;5096349;28;20485;-77
2020/12/17 03:43:58;;;;;;;11.07;8.63;;;6.80;1.00;;;;;;5093568;28;20482;-77
2020/12/17 03:46:25;;;;;;;11.27;10.03;;;6.80;1.00;;;;;;5089839;28;20474;-80
2020/12/17 03:48:52;;;;;;;11.13;9.33;;;6.80;1.00;;;;;;5091517;28;20486;-77
2020/12/17 03:51:20;;;;;;;10.87;8.27;;;6.70;1.00;;;;;;5073149;28;20495;-77
2020/12/17 03:53:47;;;;;;;11.27;9.33;;;6.60;1.00;;;;;;5088488;28;20482;-78
2020/12/17 03:56:15;;;;;;;12.27;9.73;;;6.60;1.00;;;;;;5089832;28;21309;-79
2020/12/17 03:58:43;;;;;;;12.23;8.23;;;6.70;1.00;;;;;;5089185;28;20854;-77
2020/12/17 04:01:10;;;;;;;11.60;9.33;;;6.60;1.00;;;;;;5088261;28;20548;-80
2020/12/17 04:03:37;;;;;;;10.93;8.60;;;6.70;1.00;;;;;;5092317;28;20512;-77
2020/12/17 04:06:04;;;;;;;13.83;10.67;;;6.60;1.00;;;;;;5068120;28;20490;-79
2020/12/17 04:08:32;;;;;;;11.80;9.60;;;6.50;1.00;;;;;;5080089;28;20480;-73
2020/12/17 04:10:59;;;;;;;11.47;8.30;;;6.40;1.00;;;;;;5090161;28;20892;-78
2020/12/17 04:13:26;;;;;;;11.77;8.53;;;6.40;1.00;;;;;;5097499;28;20470;-79
2020/12/17 04:15:53;;;;;;;11.90;8.47;;;6.40;1.00;;;;;;5088040;28;20463;-77
2020/12/17 04:18:20;;;;;;;10.93;9.43;;;6.40;1.00;;;;;;5096387;28;21021;-80
2020/12/17 04:20:47;;;;;;;9.47;7.83;;;6.40;1.00;;;;;;5074345;28;22026;-78
2020/12/17 04:23:14;;;;;;;10.07;9.00;;;6.40;1.00;;;;;;5093205;28;20470;-79
2020/12/17 04:25:43;;;;;;;13.77;10.00;;;6.40;1.00;;;;;;5090310;28;20484;-78
2020/12/17 04:28:10;;;;;;;10.97;8.30;;;6.40;1.00;;;;;;5078341;28;20490;-77
2020/12/17 04:30:38;;;;;;;10.50;8.57;;;6.40;1.00;;;;;;5076141;28;20980;-77
2020/12/17 04:33:05;;;;;;;13.33;9.27;;;6.50;1.00;;;;;;5084747;28;20538;-76
2020/12/17 04:35:32;;;;;;;10.83;8.80;;;6.40;1.00;;;;;;5089814;28;20474;-78
2020/12/17 04:37:59;;;;;;;10.50;7.50;;;6.40;1.00;;;;;;5092138;28;20493;-80
2020/12/17 04:40:26;;;;;;;10.23;7.67;;;6.30;1.00;;;;;;5103344;28;20901;-77
2020/12/17 04:42:54;;;;;;;9.37;7.80;;;6.40;1.00;;;;;;5064664;28;20987;-80
2020/12/17 04:45:22;;;;;;;9.33;7.57;;;6.30;1.00;;;;;;5092622;28;20468;-79
2020/12/17 04:47:53;;;;;;;9.53;7.93;;;6.40;1.00;;;;;;5093041;28;20538;-80
2020/12/17 04:50:25;;;;;;;9.10;8.17;;;6.40;1.00;;;;;;5072575;28;20973;-79
2020/12/17 04:52:53;;;;;;;9.07;7.90;;;6.40;1.00;;;;;;5098373;28;20824;-78
2020/12/17 04:55:24;;;;;;;12.10;8.40;;;6.50;1.00;;;;;;5089696;28;20524;-78
2020/12/17 04:57:53;;;;;;;9.70;7.50;;;6.50;1.00;;;;;;5087388;28;20533;-79
2020/12/17 05:00:21;;;;;;;9.47;8.00;;;6.50;1.00;;;;;;5090165;28;20490;-81
2020/12/17 05:02:48;;;;;;;8.53;7.63;;;6.50;1.00;;;;;;5089497;28;20482;-78
2020/12/17 05:05:16;;;;;;;8.77;6.70;;;6.30;1.00;;;;;;5091913;28;21156;-79
2020/12/17 05:07:43;;;;;;;8.07;6.60;;;6.20;1.00;;;;;;5092495;28;20988;-82
2020/12/17 05:10:10;;;;;;;8.13;7.33;;;6.20;1.00;;;;;;5093509;28;20461;-79
2020/12/17 05:12:37;;;;;;;8.87;7.23;;;6.10;1.00;;;;;;5083878;28;20463;-79
2020/12/17 05:15:05;;;;;;;9.37;7.20;;;6.10;1.00;;;;;;5085558;28;20880;-78
2020/12/17 05:17:33;;;;;;;7.70;6.40;;;6.00;1.00;;;;;;5089465;28;20486;-78
2020/12/17 05:20:00;;;;;;;8.70;6.50;;;6.00;1.00;;;;;;5084792;28;20925;-77
2020/12/17 05:22:28;;;;;;;6.97;6.30;;;6.00;1.00;;;;;;5088081;28;20474;-79
2020/12/17 05:24:58;;;;;;;8.40;6.43;;;5.90;1.00;;;;;;5086364;28;20977;-77
2020/12/17 05:27:27;;;;;;;10.57;6.87;;;5.90;12.80;;;;;;5090679;28;20476;-79
2020/12/17 05:29:57;;;;;;;7.87;6.10;;;5.90;11.50;;;;;;5091018;28;20961;-81
2020/12/17 05:32:26;;;;;;;7.67;6.80;;;5.80;1.00;;;;;;5090084;28;20833;-80
2020/12/17 05:34:55;;;;;;;7.77;6.70;;;5.70;1.00;;;;;;5091669;28;20459;-78
2020/12/17 05:37:22;;;;;;;7.90;5.97;;;5.80;1.00;;;;;;5074624;28;20491;-78
2020/12/17 05:39:57;;;;;;;7.27;6.57;;;5.70;1.00;;;;;;5072462;28;20462;-78
2020/12/17 05:42:26;;;;;;;8.00;6.50;;;5.70;1.00;;;;;;5097525;28;20468;-75
2020/12/17 05:44:53;;;;;;;6.40;5.70;;;5.70;1.00;;;;;;5095977;28;20870;-78
2020/12/17 05:47:20;;;;;;;7.87;6.77;;;5.70;1.00;;;;;;5069907;28;20487;-80
2020/12/17 05:49:47;;;;;;;7.30;5.90;;;5.60;1.00;;;;;;5085892;28;20547;-79
2020/12/17 05:52:17;;;;;;;7.73;6.40;;;5.60;1.00;;;;;;5089380;28;20515;-79
2020/12/17 05:55:01;;;;;;;6.70;5.50;;;5.70;1.00;;;;;;5096530;28;20474;-81
2020/12/17 05:57:28;;;;;;;5.83;5.07;;;5.80;1.00;;;;;;5067428;28;21010;-81
2020/12/17 05:59:56;;;;;;;7.73;5.80;;;5.80;1.00;;;;;;5093598;28;20468;-80
2020/12/17 06:02:25;;;;;;;5.20;4.67;;;5.80;1.00;;;;;;5084627;28;20531;-80
2020/12/17 06:05:02;;;;;;;6.13;5.40;;;5.60;1.00;;;;;;5087516;28;20467;-79
2020/12/17 06:07:34;;;;;;;5.00;4.53;;;5.60;1.00;;;;;;5093466;28;20484;-81
2020/12/17 06:10:23;;;;;;;5.00;4.50;;;5.50;1.00;;;;;;5088879;28;21648;-83
2020/12/17 06:12:51;;;;;;;4.67;4.27;;;5.50;1.00;;;;;;5092052;28;20470;-79
2020/12/17 06:15:20;;;;;;;4.70;4.23;;;5.50;1.00;;;;;;5085376;28;20474;-78
2020/12/17 06:17:52;;;;;;;4.30;3.90;;;5.50;1.00;;;;;;5089835;28;20485;-81
2020/12/17 06:20:21;;;;;;;5.33;4.83;;;5.60;1.00;;;;;;5072649;28;20533;-81
2020/12/17 06:22:54;;;;;;;4.90;4.10;;;5.60;1.00;;;;;;5085706;28;20477;-78
2020/12/17 06:25:22;;;;;;;4.00;3.70;;;5.70;1.00;;;;;;5090929;28;20479;-81
2020/12/17 06:27:51;;;;;;;4.57;4.17;;;5.90;1.00;;;;;;5089547;28;20620;-79
2020/12/17 06:30:20;;;;;;;4.97;4.47;;;6.00;1.00;;;;;;5078833;28;20556;-79
2020/12/17 06:32:48;;;;;;;5.80;4.53;;;6.10;1.00;;;;;;5077088;28;20513;-82
2020/12/17 06:35:49;;;;;;;5.37;4.17;;;6.20;1.00;;;;;;5102674;28;20554;-80
2020/12/17 06:38:23;;;;;;;4.50;4.10;;;6.30;99.90;;;;;;5073544;28;20489;-78
2020/12/17 06:40:51;;;;;;;5.27;4.80;;;6.20;99.90;;;;;;5090822;28;20536;-80
2020/12/17 06:43:30;;;;;;;4.77;4.17;;;6.20;99.90;;;;;;5071985;28;20509;-82
2020/12/17 06:46:00;;;;;;;5.30;4.80;;;6.20;99.90;;;;;;5074159;28;20540;-80
2020/12/17 06:48:34;;;;;;;4.27;3.87;;;6.10;99.90;;;;;;5099677;28;20497;-80
2020/12/17 06:51:22;;;;;;;4.50;4.10;;;6.10;99.90;;;;;;5073922;28;20491;-81
2020/12/17 06:53:50;;;;;;;5.10;4.60;;;6.10;99.90;;;;;;5088482;28;20474;-81
2020/12/17 06:56:17;;;;;;;4.73;3.80;;;6.10;99.90;;;;;;5091925;28;20469;-80
2020/12/17 06:58:45;;;;;;;5.30;4.47;;;6.10;99.90;;;;;;5078044;28;20647;-83
2020/12/17 07:01:23;;;;;;;5.50;5.00;;;6.00;99.90;;;;;;5090165;28;20501;-82
2020/12/17 07:03:51;;;;;;;4.40;4.00;;;6.00;99.90;;;;;;5099749;28;20473;-80
2020/12/17 07:06:19;;;;;;;2.93;2.73;;;6.00;99.90;;;;;;5115312;28;20465;-85
2020/12/17 07:08:49;;;;;;;3.40;3.10;;;5.80;99.90;;;;;;5118186;28;20566;-81
2020/12/17 07:11:41;;;;;;;3.03;2.80;;;5.50;1.00;;;;;;5103602;28;20478;-81
2020/12/17 07:14:10;;;;;;;2.47;2.27;;;5.50;1.00;;;;;;5075608;28;20461;-80
2020/12/17 07:16:38;;;;;;;3.50;2.73;;;5.40;1.00;;;;;;5087389;28;20474;-82
2020/12/17 07:19:22;;;;;;;4.20;2.60;;;5.50;1.00;;;;;;5085578;28;21338;-81
2020/12/17 07:21:58;;;;;;;3.00;2.70;;;5.60;1.00;;;;;;5090081;28;20477;-80
2020/12/17 07:24:32;;;;;;;2.67;2.43;;;5.50;1.00;;;;;;5090271;28;20478;-82
2020/12/17 07:27:02;;;;;;;3.13;2.93;;;5.50;1.00;;;;;;5094289;28;21298;-79
2020/12/17 07:29:31;;;;;;;4.13;3.77;;;5.60;1.00;;;;;;5072007;28;20474;-83
2020/12/17 07:32:26;;;;;;;4.47;4.07;;;5.60;1.00;;;;;;5069081;28;20813;-82
2020/12/17 07:34:55;;;;;;;4.60;4.20;;;5.60;1.00;;;;;;5069468;28;20473;-81
2020/12/17 07:37:44;;;;;;;5.50;4.70;;;5.60;1.00;;;;;;5093661;28;20522;-81
2020/12/17 07:40:35;;;;;;;3.63;3.33;;;5.80;1.00;;;;;;5072913;28;20514;-81
2020/12/17 07:43:08;;;;;;;3.07;2.77;;;5.80;1.00;;;;;;5073324;28;20457;-80
2020/12/17 07:45:48;;;;;;;3.40;3.03;;;5.80;1.00;;;;;;5092128;28;20462;-83
2020/12/17 07:48:42;;;;;;;4.83;2.70;;;5.70;1.00;;;;;;5093656;28;20484;-82
2020/12/17 07:51:28;;;;;;;3.33;2.40;;;5.70;1.00;;;;;;5085207;28;20470;-80
2020/12/17 07:53:56;;;;;;;3.30;3.00;;;5.70;1.00;;;;;;5069379;28;20467;-81
2020/12/17 07:56:23;;;;;;;4.27;3.47;;;5.70;1.00;;;;;;5070415;28;20891;-81
2020/12/17 07:58:54;;;;;;;2.40;2.20;;;5.80;1.00;;;;;;5085310;28;20585;-80
2020/12/17 08:01:22;;;;;;;4.73;2.80;;;5.80;1.00;;;;;;5066051;28;20493;-81
2020/12/17 08:03:51;;;;;;;4.25;3.35;;;5.90;1.00;;;;;;5085211;28;20486;-83
2020/12/17 08:06:20;;;;;;;3.20;3.00;;;6.00;1.00;;;;;;5080781;28;20207;-80
2020/12/17 08:08:47;;;;;;;2.77;2.57;;;6.10;1.00;;;;;;5081437;28;20495;-82
2020/12/17 08:11:35;;;;;;;2.80;2.47;;;6.30;99.90;;;;;;5061497;28;20838;-81
2020/12/17 08:14:04;;;;;;;3.17;2.10;;;6.40;99.90;;;;;;5061597;28;20507;-82
2020/12/17 08:16:32;;;;;;;3.23;2.70;;;6.50;99.90;;;;;;5063418;28;20460;-82
2020/12/17 08:19:01;;;;;;;3.00;2.80;;;6.60;99.90;;;;;;5063044;28;20944;-80
2020/12/17 08:21:29;;;;;;;2.87;2.67;;;6.70;99.90;;;;;;5091656;28;21060;-80
2020/12/17 08:23:56;;;;;;;2.77;2.57;;;6.60;99.90;;;;;;5089930;28;20530;-81
2020/12/17 08:26:25;;;;;;;2.90;2.60;;;6.60;99.90;;;;;;5073132;28;21020;-82
2020/12/17 08:28:53;;;;;;;3.70;2.90;;;6.70;99.90;;;;;;5076085;28;20500;-78
2020/12/17 08:31:23;;;;;;;2.97;2.77;;;6.60;99.90;;;;;;5094500;28;20482;-79
2020/12/17 08:33:52;;;;;;;2.70;2.50;;;6.70;1.00;;;;;;5073314;28;20477;-81
2020/12/17 08:36:22;;;;;;;5.73;2.90;;;6.70;99.90;;;;;;5075477;28;20996;-80
2020/12/17 08:38:54;;;;;;;3.10;2.63;;;6.70;1.00;;;;;;5069832;28;20530;-80
2020/12/17 08:41:27;;;;;;;2.80;2.57;;;6.70;1.00;;;;;;5068649;28;20573;-79
2020/12/17 08:44:00;;;;;;;3.07;2.80;;;6.80;99.90;;;;;;5084125;28;20833;-80
2020/12/17 08:46:31;;;;;;;3.17;2.50;;;7.00;99.90;;;;;;5080259;28;20473;-79
2020/12/17 08:49:01;;;;;;;3.37;2.80;;;7.10;99.90;;;;;;5086776;28;20545;-80
2020/12/17 08:51:29;;;;;;;3.40;3.10;;;7.30;67.40;;;;;;5091640;28;20474;-81
2020/12/17 08:53:56;;;;;;;4.03;3.63;;;7.40;1.00;;;;;;5083337;28;20256;-80
2020/12/17 08:56:23;;;;;;;3.10;2.90;;;7.40;99.90;;;;;;5082323;28;20531;-79
2020/12/17 08:58:53;;;;;;;4.80;3.30;;;7.60;99.90;;;;;;5087910;28;20500;-78
2020/12/17 09:01:25;;;;;;;2.83;2.57;;;7.50;90.10;;;;;;5089563;28;20483;-79
2020/12/17 09:03:54;;;;;;;3.20;2.90;;;7.50;99.90;;;;;;5084353;28;21001;-78
2020/12/17 09:06:26;;;;;;;2.73;2.53;;;7.40;1.00;;;;;;5090048;28;20542;-78
2020/12/17 09:08:55;;;;;;;2.70;2.50;;;7.40;99.90;;;;;;5090694;28;20491;-78
2020/12/17 09:11:34;;;;;;;3.97;2.87;;;7.30;1.00;;;;;;5091806;28;21006;-77
2020/12/17 09:14:03;;;;;;;4.03;3.47;;;7.40;1.00;;;;;;5067258;28;20455;-78
2020/12/17 09:16:32;;;;;;;2.70;2.33;;;7.60;99.90;;;;;;5085559;28;20464;-80
2020/12/17 09:19:06;;;;;;;4.60;4.20;;;7.60;1.00;;;;;;5089322;28;20485;-77
2020/12/17 09:21:36;;;;;;;3.57;3.27;;;7.80;1.00;;;;;;5089527;28;20582;-81
2020/12/17 09:24:04;;;;;;;3.33;2.37;;;8.00;1.00;;;;;;5093022;28;20521;-78
2020/12/17 09:26:33;;;;;;;2.83;2.60;;;7.60;1.00;;;;;;5072570;28;20473;-79
2020/12/17 09:29:04;;;;;;;5.57;2.60;;;7.40;99.90;;;;;;5090336;28;20478;-78
2020/12/17 09:31:34;;;;;;;3.17;2.87;;;7.20;99.90;;;;;;5088239;28;20199;-80
2020/12/17 09:34:12;;;;;;;6.57;2.60;;;7.20;99.90;;;;;;5091485;28;20456;-80
2020/12/17 09:36:42;;;;;;;5.20;3.77;;;7.40;99.90;;;;;;5088465;28;20468;-81
2020/12/17 09:39:14;;;;;;;2.80;2.60;;;7.60;2.60;;;;;;5089497;28;20707;-78
2020/12/17 09:41:55;;;;;;;3.50;3.00;;;7.70;99.90;;;;;;5088370;28;20490;-78
2020/12/17 09:44:30;;;;;;;3.43;3.13;;;7.90;99.90;;;;;;5072511;28;20473;-77
2020/12/17 09:46:59;;;;;;;4.20;3.10;;;8.00;1.00;;;;;;5071798;28;20466;-77
2020/12/17 09:49:33;;;;;;;2.50;2.30;;;8.10;99.90;;;;;;5074059;28;20886;-77
2020/12/17 09:52:02;;;;;;;3.40;3.10;;;8.30;29.60;;;;;;5088333;28;21031;-78
2020/12/17 09:54:30;;;;;;;5.17;2.97;;;8.50;1.00;;;;;;5088706;28;20455;-78
2020/12/17 09:57:06;;;;;;;3.07;2.70;;;8.80;55.60;;;;;;5071372;28;20462;-78
2020/12/17 09:59:34;;;;;;;3.43;3.00;;;8.80;99.90;;;;;;5088834;28;20464;-78
2020/12/17 10:02:02;;;;;;;3.63;2.67;;;8.90;99.90;;;;;;5088804;28;20483;-77
2020/12/17 10:04:32;;;;;;;3.83;3.00;;;9.00;99.90;;;;;;5091127;28;20507;-77
2020/12/17 10:07:00;;;;;;;3.58;3.28;;;9.20;62.10;;;;;;5069754;28;20991;-77
2020/12/17 10:09:28;;;;;;;3.07;2.83;;;9.50;1.00;;;;;;5067617;28;20207;-78
2020/12/17 10:11:57;;;;;;;3.57;3.20;;;9.80;99.90;;;;;;5092828;28;20521;-79
2020/12/17 10:14:26;;;;;;;3.50;2.60;;;9.80;99.90;;;;;;5065506;28;20875;-77
2020/12/17 10:16:58;;;;;;;3.07;2.77;;;9.60;99.90;;;;;;5074604;28;20468;-77
2020/12/17 10:19:27;;;;;;;3.37;3.00;;;9.50;99.90;;;;;;5071298;28;20456;-79
2020/12/17 10:21:56;;;;;;;3.93;2.60;;;9.60;1.00;;;;;;5065099;28;20487;-77
2020/12/17 10:24:24;;;;;;;3.07;2.87;;;9.60;99.90;;;;;;5079162;28;20469;-77
2020/12/17 10:26:52;;;;;;;2.97;2.77;;;9.90;99.90;;;;;;5064668;28;20457;-77
2020/12/17 10:29:26;;;;;;;3.07;2.60;;;10.00;99.90;;;;;;5085982;28;20451;-76
2020/12/17 10:31:55;;;;;;;2.57;2.37;;;10.10;73.20;;;;;;5088258;28;20454;-79
2020/12/17 10:34:23;;;;;;;3.53;2.87;;;10.20;82.30;;;;;;5067792;28;20456;-78
2020/12/17 10:36:51;;;;;;;2.40;2.20;;;10.40;1.00;;;;;;5089587;28;20457;-76
2020/12/17 10:39:19;;;;;;;2.97;2.67;;;10.40;1.00;;;;;;5068659;28;20576;-78
2020/12/17 10:41:46;;;;;;;3.27;2.97;;;10.50;1.00;;;;;;5069609;28;20483;-79
2020/12/17 10:44:14;;;;;;;3.17;2.97;;;10.20;1.00;;;;;;5066868;28;20469;-80
2020/12/17 10:46:42;;;;;;;3.07;2.80;;;10.40;1.00;;;;;;5067180;28;20453;-81
2020/12/17 10:49:10;;;;;;;3.20;3.00;;;10.90;1.00;;;;;;5064455;28;20494;-78
2020/12/17 10:51:38;;;;;;;2.70;2.50;;;11.10;99.90;;;;;;5068721;28;20458;-78
2020/12/17 10:54:05;;;;;;;2.70;2.17;;;11.50;99.90;;;;;;5080681;28;20500;-78
2020/12/17 10:56:35;;;;;;;2.57;2.37;;;12.10;1.00;;;;;;5090947;28;20466;-80
2020/12/17 10:59:03;;;;;;;3.33;2.67;;;12.10;1.00;;;;;;5082689;28;20528;-79
2020/12/17 11:01:31;;;;;;;3.30;2.60;;;11.90;1.00;;;;;;5081859;28;20491;-78
2020/12/17 11:04:00;;;;;;;4.50;2.33;;;11.70;1.00;;;;;;5082164;28;20473;-79
2020/12/17 11:06:28;;;;;;;4.10;2.80;;;11.40;1.00;;;;;;5086122;28;20484;-78
2020/12/17 11:08:56;;;;;;;2.90;2.67;;;11.60;10.90;;;;;;5080761;28;20495;-79
2020/12/17 11:11:23;;;;;;;2.70;2.50;;;11.70;1.00;;;;;;5090300;28;20475;-77
2020/12/17 11:13:53;;;;;;;3.10;2.90;;;11.80;1.00;;;;;;5079953;28;20456;-78
2020/12/17 11:16:21;;;;;;;2.73;2.53;;;11.80;1.00;;;;;;5080791;28;20471;-78
2020/12/17 11:18:48;;;;;;;3.17;2.93;;;11.70;11.10;;;;;;5085430;28;20540;-78
2020/12/17 11:21:19;;;;;;;3.43;2.70;;;11.50;23.40;;;;;;5068793;28;20578;-78
2020/12/17 11:23:46;;;;;;;4.80;3.50;;;11.30;99.90;;;;;;5084327;28;20957;-76
2020/12/17 11:26:14;;;;;;;3.53;2.90;;;11.30;99.90;;;;;;5084260;28;20505;-78
2020/12/17 11:28:41;;;;;;;3.93;3.63;;;11.10;99.90;;;;;;5084932;28;20880;-77
2020/12/17 11:31:10;;;;;;;3.10;2.90;;;10.90;99.90;;;;;;5083226;28;20892;-77
2020/12/17 11:33:37;;;;;;;3.47;3.17;;;10.90;1.00;;;;;;5086379;28;20473;-78
2020/12/17 11:36:05;;;;;;;3.30;3.00;;;10.90;1.00;;;;;;5085297;28;20464;-78
2020/12/17 11:38:32;;;;;;;3.60;3.23;;;10.80;1.00;;;;;;5082862;28;20559;-78
2020/12/17 11:41:00;;;;;;;4.50;2.60;;;10.60;1.00;;;;;;5059422;28;20784;-78
2020/12/17 11:43:34;;;;;;;4.47;2.80;;;10.50;99.90;;;;;;5082624;28;20453;-78
2020/12/17 11:46:02;;;;;;;3.27;2.73;;;10.30;99.90;;;;;;5083137;28;20539;-77
2020/12/17 11:48:30;;;;;;;3.20;2.90;;;10.10;99.90;;;;;;5082181;28;20491;-79
2020/12/17 11:50:58;;;;;;;2.53;2.33;;;10.00;99.90;;;;;;5062259;28;20462;-76
2020/12/17 11:53:25;;;;;;;2.90;2.70;;;9.80;99.90;;;;;;5063009;28;21325;-78
2020/12/17 11:55:52;;;;;;;3.10;2.90;;;9.90;38.80;;;;;;5089920;28;20466;-77
2020/12/17 11:58:19;;;;;;;3.80;2.57;;;10.00;99.90;;;;;;5070791;28;20498;-77
2020/12/17 12:00:47;;;;;;;3.87;2.40;;;10.00;99.90;;;;;;5085619;28;20466;-76
2020/12/17 12:03:14;;;;;;;3.57;2.83;;;10.00;1.00;;;;;;5090592;28;20475;-77
2020/12/17 12:05:42;;;;;;;1.90;1.80;;;10.00;1.00;;;;;;5088448;28;20754;-76
2020/12/17 12:08:11;;;;;;;4.93;2.80;;;10.20;99.90;;;;;;5088908;28;21178;-78
2020/12/17 12:10:38;;;;;;;3.53;2.93;;;10.20;1.00;;;;;;5088262;28;20565;-76
2020/12/17 12:13:05;;;;;;;5.60;2.93;;;10.20;99.90;;;;;;5072546;28;20496;-78
2020/12/17 12:15:32;;;;;;;7.00;6.13;;;10.10;99.90;;;;;;5091824;28;20457;-76
2020/12/17 12:18:00;;;;;;;3.40;2.63;;;10.10;1.00;;;;;;5092080;28;20599;-77
2020/12/17 12:20:27;;;;;;;4.60;2.67;;;10.10;99.90;;;;;;5092235;28;20545;-76
2020/12/17 12:22:55;;;;;;;3.17;2.70;;;10.00;99.90;;;;;;5081264;28;20487;-76
2020/12/17 12:25:22;;;;;;;5.00;3.23;;;10.00;1.00;;;;;;5091439;28;20472;-77
2020/12/17 12:27:49;;;;;;;3.07;2.80;;;10.00;1.00;;;;;;5090988;28;20487;-77
2020/12/17 12:30:16;;;;;;;2.60;2.40;;;10.00;1.00;;;;;;5091463;28;20515;-77
2020/12/17 12:32:44;;;;;;;4.33;3.27;;;10.10;99.90;;;;;;5090597;28;20479;-78
2020/12/17 12:35:11;;;;;;;3.57;2.93;;;10.10;1.00;;;;;;5079845;28;20468;-77
2020/12/17 12:37:39;;;;;;;3.67;3.10;;;10.20;1.00;;;;;;5084780;28;20485;-76
2020/12/17 12:40:10;;;;;;;4.43;3.17;;;10.30;99.90;;;;;;5067880;28;20480;-76
2020/12/17 12:42:37;;;;;;;4.20;3.80;;;10.50;1.00;;;;;;5067074;28;20473;-76
2020/12/17 12:45:04;;;;;;;4.70;3.43;;;10.70;1.00;;;;;;5071735;28;20472;-76
2020/12/17 12:47:32;;;;;;;4.37;3.40;;;10.90;99.90;;;;;;5084974;28;20502;-77
2020/12/17 12:49:59;;;;;;;4.23;2.90;;;10.80;1.00;;;;;;5091146;28;20507;-77
2020/12/17 12:52:26;;;;;;;3.90;3.50;;;10.80;1.00;;;;;;5095741;28;20482;-77
2020/12/17 12:54:53;;;;;;;7.60;5.93;;;10.70;2.40;;;;;;5089364;28;20465;-76
2020/12/17 12:57:22;;;;;;;4.93;4.03;;;10.60;32.20;;;;;;5092059;28;20479;-77
2020/12/17 12:59:49;;;;;;;3.60;2.70;;;10.40;5.10;;;;;;5084803;28;20488;-77
2020/12/17 13:02:17;;;;;;;3.30;3.00;;;10.30;1.00;;;;;;5088457;28;20478;-76
2020/12/17 13:04:44;;;;;;;3.80;3.17;;;10.30;1.00;;;;;;5096565;28;20473;-77
2020/12/17 13:07:13;;;;;;;3.67;3.07;;;10.30;1.00;;;;;;5089699;28;20461;-77
2020/12/17 13:09:41;;;;;;;3.27;2.97;;;10.30;1.00;;;;;;5085216;28;20469;-76
2020/12/17 13:12:09;;;;;;;3.33;3.03;;;10.30;30.00;;;;;;5082419;28;20463;-74